EmailTwitter


Observations de surface / France / LFBO (07630)

Régions: Québec | Canada | États-Unis | Europe | France | UK | Ailleurs
Station
Affichage
Infos & localisation pour LFBO (07630) | Aide pour décoder les METARs

Observations prises le 2019-01-20 à 08H30 UTC à TOULOUSE/BLAGNAC, FR (LFBO)

Etat du ciel: couvert.

Température: 4.0 Celsius

Point de rosée: 3.0 Celsius

Humidité relative: 93%

Vents: Calme à 0 km/h ou 0 noeuds.

Pression au niveau moyen de la mer: 101.20 kilopascals.

Visibilité horizontale: 6.21 milles terrestres ou 9.94 kilomètres.

Hauteur du plafond: 2560 mètres ( 8400 pieds ).

Observation METAR:

LFBO 200830Z AUTO 00000KT 9999 FEW036 OVC084 04/03 Q1012 TEMPO 4000 -RA BKN014=